Muckle Holm, United Kingdom
Current Conditions -  °F | °C
As of 11:50 PM on Friday 19 Dec 2014 (Local Time) from EGPM Reporting Station
Scattered Clouds Scattered Clouds  
Wind Chill: 28°   Ceiling: Unl
Heat Index: 39°   Visibility: 6mi
Dew Point: 34°   Wind: 24mph
Humidity: 81%   Direction: 260°W
Pressure: 29.18"   Gusts: NA
Location:  60.58°N, 1.27°W
Report Text: EGPM 192350Z AUTO 26021KT 9999 FEW004/// SCT029/// 04/01 Q0988 RERA
Loading
Personal Weather Stations






























Interactive Weather Map New forecast layout! Learn more

10-Day Weather Forecast

Advertisements
Track Severe Weather on mobile